sensor_id;sensor_type;location;lat;lon;timestamp;P1;durP1;ratioP1;P2;durP2;ratioP2
20462;SDS011;10390;53.566;9.980;2023-06-10T00:00:12;5.93;;;4.13;;
20462;SDS011;10390;53.566;9.980;2023-06-10T00:02:40;5.10;;;4.20;;
20462;SDS011;10390;53.566;9.980;2023-06-10T00:05:06;6.85;;;4.47;;
20462;SDS011;10390;53.566;9.980;2023-06-10T00:07:35;5.40;;;4.18;;
20462;SDS011;10390;53.566;9.980;2023-06-10T00:10:03;5.32;;;4.40;;
20462;SDS011;10390;53.566;9.980;2023-06-10T00:12:30;6.78;;;4.10;;
20462;SDS011;10390;53.566;9.980;2023-06-10T00:15:02;5.75;;;4.30;;
20462;SDS011;10390;53.566;9.980;2023-06-10T00:17:28;5.82;;;4.18;;
20462;SDS011;10390;53.566;9.980;2023-06-10T00:19:54;5.35;;;4.18;;
20462;SDS011;10390;53.566;9.980;2023-06-10T00:22:20;6.03;;;4.18;;
20462;SDS011;10390;53.566;9.980;2023-06-10T00:24:47;4.97;;;3.95;;
20462;SDS011;10390;53.566;9.980;2023-06-10T00:27:13;7.32;;;4.47;;
20462;SDS011;10390;53.566;9.980;2023-06-10T00:29:38;6.72;;;5.20;;
20462;SDS011;10390;53.566;9.980;2023-06-10T00:32:04;6.13;;;5.40;;
20462;SDS011;10390;53.566;9.980;2023-06-10T00:34:30;6.47;;;5.25;;
20462;SDS011;10390;53.566;9.980;2023-06-10T00:36:57;6.63;;;5.43;;
20462;SDS011;10390;53.566;9.980;2023-06-10T00:39:22;8.27;;;5.47;;
20462;SDS011;10390;53.566;9.980;2023-06-10T00:41:48;6.82;;;5.38;;
20462;SDS011;10390;53.566;9.980;2023-06-10T00:44:15;6.50;;;5.60;;
20462;SDS011;10390;53.566;9.980;2023-06-10T00:46:40;7.13;;;5.60;;
20462;SDS011;10390;53.566;9.980;2023-06-10T00:49:06;6.78;;;6.07;;
20462;SDS011;10390;53.566;9.980;2023-06-10T00:51:33;5.88;;;5.28;;
20462;SDS011;10390;53.566;9.980;2023-06-10T00:54:00;7.35;;;5.57;;
20462;SDS011;10390;53.566;9.980;2023-06-10T00:56:26;6.68;;;5.72;;
20462;SDS011;10390;53.566;9.980;2023-06-10T00:58:53;6.25;;;5.47;;
20462;SDS011;10390;53.566;9.980;2023-06-10T01:01:19;7.32;;;6.03;;
20462;SDS011;10390;53.566;9.980;2023-06-10T01:03:44;7.15;;;5.47;;
20462;SDS011;10390;53.566;9.980;2023-06-10T01:09:01;6.72;;;5.95;;
20462;SDS011;10390;53.566;9.980;2023-06-10T01:11:57;6.20;;;5.60;;
20462;SDS011;10390;53.566;9.980;2023-06-10T01:14:28;6.25;;;5.63;;
20462;SDS011;10390;53.566;9.980;2023-06-10T01:16:57;6.47;;;5.57;;
20462;SDS011;10390;53.566;9.980;2023-06-10T01:19:23;6.10;;;5.50;;
20462;SDS011;10390;53.566;9.980;2023-06-10T01:21:49;6.57;;;5.90;;
20462;SDS011;10390;53.566;9.980;2023-06-10T01:24:16;6.05;;;5.45;;
20462;SDS011;10390;53.566;9.980;2023-06-10T01:26:43;6.57;;;5.50;;
20462;SDS011;10390;53.566;9.980;2023-06-10T01:32:17;6.68;;;5.78;;
20462;SDS011;10390;53.566;9.980;2023-06-10T01:34:48;6.35;;;5.47;;
20462;SDS011;10390;53.566;9.980;2023-06-10T01:37:16;6.93;;;5.72;;
20462;SDS011;10390;53.566;9.980;2023-06-10T01:39:44;6.22;;;4.90;;
20462;SDS011;10390;53.566;9.980;2023-06-10T01:42:12;5.70;;;5.10;;
20462;SDS011;10390;53.566;9.980;2023-06-10T01:44:39;5.90;;;5.30;;
20462;SDS011;10390;53.566;9.980;2023-06-10T01:47:05;6.07;;;5.00;;
20462;SDS011;10390;53.566;9.980;2023-06-10T01:49:30;6.00;;;5.40;;
20462;SDS011;10390;53.566;9.980;2023-06-10T01:51:56;6.38;;;5.55;;
20462;SDS011;10390;53.566;9.980;2023-06-10T01:54:22;5.97;;;5.35;;
20462;SDS011;10390;53.566;9.980;2023-06-10T01:56:47;6.90;;;5.68;;
20462;SDS011;10390;53.566;9.980;2023-06-10T01:59:13;6.60;;;5.90;;
20462;SDS011;10390;53.566;9.980;2023-06-10T02:01:38;6.22;;;5.28;;
20462;SDS011;10390;53.566;9.980;2023-06-10T02:04:04;7.20;;;5.60;;
20462;SDS011;10390;53.566;9.980;2023-06-10T02:06:30;6.05;;;5.05;;
20462;SDS011;10390;53.566;9.980;2023-06-10T02:08:55;5.65;;;5.03;;
20462;SDS011;10390;53.566;9.980;2023-06-10T02:11:21;6.68;;;5.22;;
20462;SDS011;10390;53.566;9.980;2023-06-10T02:13:47;6.35;;;4.75;;
20462;SDS011;10390;53.566;9.980;2023-06-10T02:16:12;5.43;;;4.68;;
20462;SDS011;10390;53.566;9.980;2023-06-10T02:18:39;5.85;;;5.25;;
20462;SDS011;10390;53.566;9.980;2023-06-10T02:21:08;6.25;;;5.00;;
20462;SDS011;10390;53.566;9.980;2023-06-10T02:23:33;5.50;;;4.90;;
20462;SDS011;10390;53.566;9.980;2023-06-10T02:25:59;6.47;;;5.00;;
20462;SDS011;10390;53.566;9.980;2023-06-10T02:28:25;6.72;;;5.07;;
20462;SDS011;10390;53.566;9.980;2023-06-10T02:30:51;5.72;;;5.00;;
20462;SDS011;10390;53.566;9.980;2023-06-10T02:33:17;5.72;;;5.13;;
20462;SDS011;10390;53.566;9.980;2023-06-10T02:35:42;6.07;;;4.95;;
20462;SDS011;10390;53.566;9.980;2023-06-10T02:38:08;6.28;;;4.93;;
20462;SDS011;10390;53.566;9.980;2023-06-10T02:40:33;5.75;;;4.75;;
20462;SDS011;10390;53.566;9.980;2023-06-10T02:42:59;6.35;;;4.55;;
20462;SDS011;10390;53.566;9.980;2023-06-10T02:45:25;6.63;;;5.38;;
20462;SDS011;10390;53.566;9.980;2023-06-10T02:47:50;6.88;;;5.05;;
20462;SDS011;10390;53.566;9.980;2023-06-10T02:50:16;6.55;;;4.85;;
20462;SDS011;10390;53.566;9.980;2023-06-10T02:52:41;6.32;;;5.35;;
20462;SDS011;10390;53.566;9.980;2023-06-10T02:55:07;6.20;;;4.43;;
20462;SDS011;10390;53.566;9.980;2023-06-10T02:57:32;6.15;;;5.10;;
20462;SDS011;10390;53.566;9.980;2023-06-10T02:59:58;6.25;;;4.70;;
20462;SDS011;10390;53.566;9.980;2023-06-10T03:02:24;5.38;;;4.57;;
20462;SDS011;10390;53.566;9.980;2023-06-10T03:04:56;5.03;;;4.28;;
20462;SDS011;10390;53.566;9.980;2023-06-10T03:07:22;5.75;;;4.97;;
20462;SDS011;10390;53.566;9.980;2023-06-10T03:09:48;7.22;;;5.32;;
20462;SDS011;10390;53.566;9.980;2023-06-10T03:12:14;6.00;;;5.40;;
20462;SDS011;10390;53.566;9.980;2023-06-10T03:14:40;6.05;;;5.45;;
20462;SDS011;10390;53.566;9.980;2023-06-10T03:17:06;6.10;;;5.00;;
20462;SDS011;10390;53.566;9.980;2023-06-10T03:19:33;5.95;;;4.88;;
20462;SDS011;10390;53.566;9.980;2023-06-10T03:22:09;6.82;;;4.85;;
20462;SDS011;10390;53.566;9.980;2023-06-10T03:24:36;6.43;;;5.18;;
20462;SDS011;10390;53.566;9.980;2023-06-10T03:27:06;5.28;;;4.78;;
20462;SDS011;10390;53.566;9.980;2023-06-10T03:29:32;7.38;;;4.78;;
20462;SDS011;10390;53.566;9.980;2023-06-10T03:31:58;5.88;;;4.75;;
20462;SDS011;10390;53.566;9.980;2023-06-10T03:34:24;7.63;;;5.28;;
20462;SDS011;10390;53.566;9.980;2023-06-10T03:36:49;6.03;;;5.13;;
20462;SDS011;10390;53.566;9.980;2023-06-10T03:39:15;5.82;;;4.80;;
20462;SDS011;10390;53.566;9.980;2023-06-10T03:41:41;6.70;;;5.10;;
20462;SDS011;10390;53.566;9.980;2023-06-10T03:44:06;5.38;;;4.80;;
20462;SDS011;10390;53.566;9.980;2023-06-10T03:46:32;6.22;;;5.03;;
20462;SDS011;10390;53.566;9.980;2023-06-10T03:48:58;6.03;;;5.30;;
20462;SDS011;10390;53.566;9.980;2023-06-10T03:51:25;7.30;;;4.80;;
20462;SDS011;10390;53.566;9.980;2023-06-10T03:53:51;7.13;;;5.18;;
20462;SDS011;10390;53.566;9.980;2023-06-10T03:56:17;5.40;;;4.72;;
20462;SDS011;10390;53.566;9.980;2023-06-10T03:58:43;6.13;;;5.22;;
20462;SDS011;10390;53.566;9.980;2023-06-10T04:01:08;6.70;;;5.03;;
20462;SDS011;10390;53.566;9.980;2023-06-10T04:03:35;6.38;;;5.07;;
20462;SDS011;10390;53.566;9.980;2023-06-10T04:06:01;6.13;;;4.90;;
20462;SDS011;10390;53.566;9.980;2023-06-10T04:08:27;8.68;;;5.35;;
20462;SDS011;10390;53.566;9.980;2023-06-10T04:10:54;5.93;;;5.10;;
20462;SDS011;10390;53.566;9.980;2023-06-10T04:13:19;6.60;;;5.22;;
20462;SDS011;10390;53.566;9.980;2023-06-10T04:15:45;5.90;;;5.07;;
20462;SDS011;10390;53.566;9.980;2023-06-10T04:18:11;5.90;;;4.75;;
20462;SDS011;10390;53.566;9.980;2023-06-10T04:20:36;6.88;;;5.28;;
20462;SDS011;10390;53.566;9.980;2023-06-10T04:23:02;5.15;;;4.65;;
20462;SDS011;10390;53.566;9.980;2023-06-10T04:25:28;6.03;;;4.90;;
20462;SDS011;10390;53.566;9.980;2023-06-10T04:27:54;6.88;;;5.63;;
20462;SDS011;10390;53.566;9.980;2023-06-10T04:30:20;5.97;;;5.25;;
20462;SDS011;10390;53.566;9.980;2023-06-10T04:32:45;6.22;;;5.13;;
20462;SDS011;10390;53.566;9.980;2023-06-10T04:35:12;6.10;;;4.93;;
20462;SDS011;10390;53.566;9.980;2023-06-10T04:37:39;7.18;;;5.20;;
20462;SDS011;10390;53.566;9.980;2023-06-10T04:40:05;6.45;;;5.65;;
20462;SDS011;10390;53.566;9.980;2023-06-10T04:42:31;5.78;;;4.72;;
20462;SDS011;10390;53.566;9.980;2023-06-10T04:44:56;6.82;;;5.10;;
20462;SDS011;10390;53.566;9.980;2023-06-10T04:47:22;6.65;;;5.60;;
20462;SDS011;10390;53.566;9.980;2023-06-10T04:49:48;6.07;;;5.25;;
20462;SDS011;10390;53.566;9.980;2023-06-10T04:52:14;6.95;;;5.65;;
20462;SDS011;10390;53.566;9.980;2023-06-10T04:54:39;7.15;;;5.53;;
20462;SDS011;10390;53.566;9.980;2023-06-10T04:57:06;7.13;;;5.63;;
20462;SDS011;10390;53.566;9.980;2023-06-10T04:59:32;5.93;;;5.32;;
20462;SDS011;10390;53.566;9.980;2023-06-10T05:02:02;6.00;;;5.32;;
20462;SDS011;10390;53.566;9.980;2023-06-10T05:04:28;5.88;;;5.28;;
20462;SDS011;10390;53.566;9.980;2023-06-10T05:06:54;6.18;;;5.38;;
20462;SDS011;10390;53.566;9.980;2023-06-10T05:09:20;6.40;;;5.78;;
20462;SDS011;10390;53.566;9.980;2023-06-10T05:11:46;6.60;;;5.00;;
20462;SDS011;10390;53.566;9.980;2023-06-10T05:14:12;5.93;;;5.20;;
20462;SDS011;10390;53.566;9.980;2023-06-10T05:16:38;5.97;;;5.03;;
20462;SDS011;10390;53.566;9.980;2023-06-10T05:19:03;7.35;;;5.18;;
20462;SDS011;10390;53.566;9.980;2023-06-10T05:21:29;7.75;;;5.97;;
20462;SDS011;10390;53.566;9.980;2023-06-10T05:23:55;6.57;;;5.30;;
20462;SDS011;10390;53.566;9.980;2023-06-10T05:26:21;6.00;;;5.15;;
20462;SDS011;10390;53.566;9.980;2023-06-10T05:28:47;6.43;;;5.15;;
20462;SDS011;10390;53.566;9.980;2023-06-10T05:31:12;6.15;;;5.18;;
20462;SDS011;10390;53.566;9.980;2023-06-10T05:33:38;6.38;;;4.90;;
20462;SDS011;10390;53.566;9.980;2023-06-10T05:36:04;5.65;;;4.93;;
20462;SDS011;10390;53.566;9.980;2023-06-10T05:38:30;7.70;;;5.65;;
20462;SDS011;10390;53.566;9.980;2023-06-10T05:40:55;6.13;;;4.97;;
20462;SDS011;10390;53.566;9.980;2023-06-10T05:43:22;6.43;;;5.00;;
20462;SDS011;10390;53.566;9.980;2023-06-10T05:45:47;7.20;;;5.30;;
20462;SDS011;10390;53.566;9.980;2023-06-10T05:48:13;8.48;;;5.85;;
20462;SDS011;10390;53.566;9.980;2023-06-10T05:50:39;5.78;;;5.25;;
20462;SDS011;10390;53.566;9.980;2023-06-10T05:53:07;6.47;;;5.38;;
20462;SDS011;10390;53.566;9.980;2023-06-10T05:55:40;6.00;;;4.75;;
20462;SDS011;10390;53.566;9.980;2023-06-10T05:58:07;5.85;;;4.97;;
20462;SDS011;10390;53.566;9.980;2023-06-10T06:00:33;6.35;;;5.38;;
20462;SDS011;10390;53.566;9.980;2023-06-10T06:02:58;7.22;;;5.25;;
20462;SDS011;10390;53.566;9.980;2023-06-10T06:05:24;5.75;;;4.90;;
20462;SDS011;10390;53.566;9.980;2023-06-10T06:07:50;6.75;;;5.03;;
20462;SDS011;10390;53.566;9.980;2023-06-10T06:10:16;7.30;;;4.80;;
20462;SDS011;10390;53.566;9.980;2023-06-10T06:12:42;7.03;;;4.57;;
20462;SDS011;10390;53.566;9.980;2023-06-10T06:15:08;10.85;;;5.85;;
20462;SDS011;10390;53.566;9.980;2023-06-10T06:17:35;9.52;;;6.07;;
20462;SDS011;10390;53.566;9.980;2023-06-10T06:20:01;6.88;;;5.72;;
20462;SDS011;10390;53.566;9.980;2023-06-10T06:22:27;8.10;;;5.75;;
20462;SDS011;10390;53.566;9.980;2023-06-10T06:24:53;7.78;;;5.28;;
20462;SDS011;10390;53.566;9.980;2023-06-10T06:27:19;8.02;;;5.22;;
20462;SDS011;10390;53.566;9.980;2023-06-10T06:29:46;6.82;;;5.55;;
20462;SDS011;10390;53.566;9.980;2023-06-10T06:32:12;6.18;;;5.50;;
20462;SDS011;10390;53.566;9.980;2023-06-10T06:34:37;9.02;;;5.97;;
20462;SDS011;10390;53.566;9.980;2023-06-10T06:37:03;6.45;;;5.68;;
20462;SDS011;10390;53.566;9.980;2023-06-10T06:39:29;6.32;;;5.68;;
20462;SDS011;10390;53.566;9.980;2023-06-10T06:41:54;7.88;;;5.90;;
20462;SDS011;10390;53.566;9.980;2023-06-10T06:44:20;9.27;;;5.68;;
20462;SDS011;10390;53.566;9.980;2023-06-10T06:46:45;9.50;;;5.65;;
20462;SDS011;10390;53.566;9.980;2023-06-10T06:49:11;7.45;;;5.90;;
20462;SDS011;10390;53.566;9.980;2023-06-10T06:51:37;8.10;;;6.15;;
20462;SDS011;10390;53.566;9.980;2023-06-10T06:54:02;10.68;;;6.15;;
20462;SDS011;10390;53.566;9.980;2023-06-10T06:56:28;6.57;;;5.85;;
20462;SDS011;10390;53.566;9.980;2023-06-10T06:58:53;8.90;;;6.20;;
20462;SDS011;10390;53.566;9.980;2023-06-10T07:01:19;7.18;;;5.45;;
20462;SDS011;10390;53.566;9.980;2023-06-10T07:03:45;8.30;;;5.88;;
20462;SDS011;10390;53.566;9.980;2023-06-10T07:06:12;9.98;;;6.38;;
20462;SDS011;10390;53.566;9.980;2023-06-10T07:08:38;6.82;;;6.15;;
20462;SDS011;10390;53.566;9.980;2023-06-10T07:11:03;9.40;;;6.80;;
20462;SDS011;10390;53.566;9.980;2023-06-10T07:13:29;10.15;;;6.90;;
20462;SDS011;10390;53.566;9.980;2023-06-10T07:15:55;9.63;;;6.63;;
20462;SDS011;10390;53.566;9.980;2023-06-10T07:18:20;8.77;;;6.72;;
20462;SDS011;10390;53.566;9.980;2023-06-10T07:20:46;9.48;;;7.10;;
20462;SDS011;10390;53.566;9.980;2023-06-10T07:23:11;7.65;;;6.38;;
20462;SDS011;10390;53.566;9.980;2023-06-10T07:25:37;9.73;;;6.03;;
20462;SDS011;10390;53.566;9.980;2023-06-10T07:28:03;9.73;;;6.88;;
20462;SDS011;10390;53.566;9.980;2023-06-10T07:30:28;8.63;;;6.20;;
20462;SDS011;10390;53.566;9.980;2023-06-10T07:32:54;8.25;;;6.00;;
20462;SDS011;10390;53.566;9.980;2023-06-10T07:35:20;6.80;;;6.10;;
20462;SDS011;10390;53.566;9.980;2023-06-10T07:37:46;6.63;;;5.93;;
20462;SDS011;10390;53.566;9.980;2023-06-10T07:40:12;10.02;;;6.38;;
20462;SDS011;10390;53.566;9.980;2023-06-10T07:42:37;8.57;;;6.72;;
20462;SDS011;10390;53.566;9.980;2023-06-10T07:45:03;8.75;;;6.25;;
20462;SDS011;10390;53.566;9.980;2023-06-10T07:47:30;7.47;;;5.90;;
20462;SDS011;10390;53.566;9.980;2023-06-10T07:49:56;7.88;;;6.20;;
20462;SDS011;10390;53.566;9.980;2023-06-10T07:52:21;8.57;;;6.68;;
20462;SDS011;10390;53.566;9.980;2023-06-10T07:54:47;9.57;;;6.70;;
20462;SDS011;10390;53.566;9.980;2023-06-10T07:57:12;6.97;;;5.90;;
20462;SDS011;10390;53.566;9.980;2023-06-10T07:59:38;10.88;;;7.25;;
20462;SDS011;10390;53.566;9.980;2023-06-10T08:02:04;11.95;;;7.05;;
20462;SDS011;10390;53.566;9.980;2023-06-10T08:04:30;10.93;;;6.80;;
20462;SDS011;10390;53.566;9.980;2023-06-10T08:07:01;8.68;;;6.70;;
20462;SDS011;10390;53.566;9.980;2023-06-10T08:09:30;7.57;;;6.38;;
20462;SDS011;10390;53.566;9.980;2023-06-10T08:11:56;8.68;;;6.18;;
20462;SDS011;10390;53.566;9.980;2023-06-10T08:14:32;8.75;;;6.22;;
20462;SDS011;10390;53.566;9.980;2023-06-10T08:16:57;6.57;;;5.88;;
20462;SDS011;10390;53.566;9.980;2023-06-10T08:19:24;10.13;;;6.68;;
20462;SDS011;10390;53.566;9.980;2023-06-10T08:21:52;9.52;;;6.30;;
20462;SDS011;10390;53.566;9.980;2023-06-10T08:24:20;9.43;;;6.50;;
20462;SDS011;10390;53.566;9.980;2023-06-10T08:26:46;8.27;;;6.28;;
20462;SDS011;10390;53.566;9.980;2023-06-10T08:29:12;8.95;;;7.00;;
20462;SDS011;10390;53.566;9.980;2023-06-10T08:31:40;7.32;;;6.32;;
20462;SDS011;10390;53.566;9.980;2023-06-10T08:34:09;9.75;;;7.07;;
20462;SDS011;10390;53.566;9.980;2023-06-10T08:36:35;7.60;;;6.05;;
20462;SDS011;10390;53.566;9.980;2023-06-10T08:39:01;10.95;;;6.78;;
20462;SDS011;10390;53.566;9.980;2023-06-10T08:41:28;11.95;;;6.85;;
20462;SDS011;10390;53.566;9.980;2023-06-10T08:44:08;8.73;;;6.85;;
20462;SDS011;10390;53.566;9.980;2023-06-10T08:46:43;9.95;;;6.60;;
20462;SDS011;10390;53.566;9.980;2023-06-10T08:49:10;8.18;;;6.93;;
20462;SDS011;10390;53.566;9.980;2023-06-10T08:51:42;8.82;;;6.85;;
20462;SDS011;10390;53.566;9.980;2023-06-10T08:54:11;9.10;;;6.93;;
20462;SDS011;10390;53.566;9.980;2023-06-10T08:56:43;10.48;;;6.57;;
20462;SDS011;10390;53.566;9.980;2023-06-10T08:59:12;10.50;;;7.00;;
20462;SDS011;10390;53.566;9.980;2023-06-10T09:01:38;11.57;;;7.03;;
20462;SDS011;10390;53.566;9.980;2023-06-10T09:04:04;10.23;;;6.88;;
20462;SDS011;10390;53.566;9.980;2023-06-10T09:06:30;9.02;;;6.90;;
20462;SDS011;10390;53.566;9.980;2023-06-10T09:08:58;7.55;;;6.45;;
20462;SDS011;10390;53.566;9.980;2023-06-10T09:11:24;10.45;;;7.20;;
20462;SDS011;10390;53.566;9.980;2023-06-10T09:13:50;7.78;;;6.47;;
20462;SDS011;10390;53.566;9.980;2023-06-10T09:16:16;9.25;;;6.57;;
20462;SDS011;10390;53.566;9.980;2023-06-10T09:18:42;11.82;;;6.90;;
20462;SDS011;10390;53.566;9.980;2023-06-10T09:21:08;8.30;;;6.80;;
20462;SDS011;10390;53.566;9.980;2023-06-10T09:23:34;8.43;;;6.65;;
20462;SDS011;10390;53.566;9.980;2023-06-10T09:26:01;8.02;;;6.70;;
20462;SDS011;10390;53.566;9.980;2023-06-10T09:28:30;9.45;;;6.65;;
20462;SDS011;10390;53.566;9.980;2023-06-10T09:31:02;8.45;;;5.80;;
20462;SDS011;10390;53.566;9.980;2023-06-10T09:33:29;9.25;;;6.35;;
20462;SDS011;10390;53.566;9.980;2023-06-10T09:35:55;11.25;;;6.63;;
20462;SDS011;10390;53.566;9.980;2023-06-10T09:38:22;13.05;;;7.80;;
20462;SDS011;10390;53.566;9.980;2023-06-10T09:40:48;10.13;;;7.65;;
20462;SDS011;10390;53.566;9.980;2023-06-10T09:43:18;8.73;;;6.88;;
20462;SDS011;10390;53.566;9.980;2023-06-10T09:45:44;8.65;;;6.30;;
20462;SDS011;10390;53.566;9.980;2023-06-10T09:48:13;9.95;;;6.78;;
20462;SDS011;10390;53.566;9.980;2023-06-10T09:50:42;8.65;;;6.80;;
20462;SDS011;10390;53.566;9.980;2023-06-10T09:53:09;8.27;;;6.82;;
20462;SDS011;10390;53.566;9.980;2023-06-10T09:55:37;7.35;;;6.65;;
20462;SDS011;10390;53.566;9.980;2023-06-10T09:58:03;8.82;;;6.22;;
20462;SDS011;10390;53.566;9.980;2023-06-10T10:00:31;10.15;;;6.10;;
20462;SDS011;10390;53.566;9.980;2023-06-10T10:02:58;8.32;;;5.50;;
20462;SDS011;10390;53.566;9.980;2023-06-10T10:05:24;10.18;;;5.65;;
20462;SDS011;10390;53.566;9.980;2023-06-10T10:07:50;6.55;;;5.53;;
20462;SDS011;10390;53.566;9.980;2023-06-10T10:10:17;11.02;;;5.07;;
20462;SDS011;10390;53.566;9.980;2023-06-10T10:12:45;7.50;;;6.53;;
20462;SDS011;10390;53.566;9.980;2023-06-10T10:15:12;7.45;;;6.00;;
20462;SDS011;10390;53.566;9.980;2023-06-10T10:20:26;7.07;;;6.22;;
20462;SDS011;10390;53.566;9.980;2023-06-10T10:22:57;8.88;;;6.57;;
20462;SDS011;10390;53.566;9.980;2023-06-10T10:25:25;9.35;;;6.60;;
20462;SDS011;10390;53.566;9.980;2023-06-10T10:27:57;10.20;;;6.35;;
20462;SDS011;10390;53.566;9.980;2023-06-10T10:30:28;9.35;;;6.25;;
20462;SDS011;10390;53.566;9.980;2023-06-10T10:35:30;8.73;;;6.28;;
20462;SDS011;10390;53.566;9.980;2023-06-10T10:37:58;15.20;;;7.47;;
20462;SDS011;10390;53.566;9.980;2023-06-10T10:40:23;9.48;;;6.50;;
20462;SDS011;10390;53.566;9.980;2023-06-10T10:42:54;12.48;;;7.00;;
20462;SDS011;10390;53.566;9.980;2023-06-10T10:45:21;7.55;;;6.70;;
20462;SDS011;10390;53.566;9.980;2023-06-10T10:47:48;10.73;;;6.88;;
20462;SDS011;10390;53.566;9.980;2023-06-10T10:50:18;10.57;;;6.72;;
20462;SDS011;10390;53.566;9.980;2023-06-10T10:52:52;9.13;;;7.00;;
20462;SDS011;10390;53.566;9.980;2023-06-10T10:55:21;10.00;;;6.95;;
20462;SDS011;10390;53.566;9.980;2023-06-10T10:57:54;9.25;;;6.70;;
20462;SDS011;10390;53.566;9.980;2023-06-10T11:00:31;9.40;;;6.22;;
20462;SDS011;10390;53.566;9.980;2023-06-10T11:03:05;8.90;;;6.30;;
20462;SDS011;10390;53.566;9.980;2023-06-10T11:05:36;8.00;;;6.13;;
20462;SDS011;10390;53.566;9.980;2023-06-10T11:08:02;9.95;;;6.13;;
20462;SDS011;10390;53.566;9.980;2023-06-10T11:10:38;10.27;;;6.43;;
20462;SDS011;10390;53.566;9.980;2023-06-10T11:13:14;12.10;;;7.20;;
20462;SDS011;10390;53.566;9.980;2023-06-10T11:15:47;8.07;;;6.35;;
20462;SDS011;10390;53.566;9.980;2023-06-10T11:18:24;9.50;;;6.80;;
20462;SDS011;10390;53.566;9.980;2023-06-10T11:20:55;12.57;;;6.75;;
20462;SDS011;10390;53.566;9.980;2023-06-10T11:33:56;14.57;;;7.05;;
20462;SDS011;10390;53.566;9.980;2023-06-10T11:36:25;12.32;;;7.13;;
20462;SDS011;10390;53.566;9.980;2023-06-10T11:39:02;13.57;;;7.68;;
20462;SDS011;10390;53.566;9.980;2023-06-10T11:41:29;10.07;;;6.78;;
20462;SDS011;10390;53.566;9.980;2023-06-10T11:43:57;14.77;;;7.25;;
20462;SDS011;10390;53.566;9.980;2023-06-10T11:46:36;12.30;;;6.60;;
20462;SDS011;10390;53.566;9.980;2023-06-10T11:49:02;12.98;;;6.50;;
20462;SDS011;10390;53.566;9.980;2023-06-10T11:51:33;10.35;;;6.35;;
20462;SDS011;10390;53.566;9.980;2023-06-10T11:54:04;11.15;;;6.80;;
20462;SDS011;10390;53.566;9.980;2023-06-10T11:56:30;10.80;;;5.93;;
20462;SDS011;10390;53.566;9.980;2023-06-10T11:59:00;10.13;;;6.50;;
20462;SDS011;10390;53.566;9.980;2023-06-10T12:01:32;10.50;;;6.38;;
20462;SDS011;10390;53.566;9.980;2023-06-10T12:04:00;8.73;;;5.97;;
20462;SDS011;10390;53.566;9.980;2023-06-10T12:09:14;11.55;;;6.22;;
20462;SDS011;10390;53.566;9.980;2023-06-10T12:11:42;13.63;;;7.93;;
20462;SDS011;10390;53.566;9.980;2023-06-10T12:14:11;12.93;;;7.53;;
20462;SDS011;10390;53.566;9.980;2023-06-10T12:16:37;19.48;;;8.38;;
20462;SDS011;10390;53.566;9.980;2023-06-10T12:19:03;16.10;;;7.25;;
20462;SDS011;10390;53.566;9.980;2023-06-10T12:21:31;18.33;;;7.70;;
20462;SDS011;10390;53.566;9.980;2023-06-10T12:24:04;15.55;;;7.60;;
20462;SDS011;10390;53.566;9.980;2023-06-10T12:26:40;12.60;;;6.68;;
20462;SDS011;10390;53.566;9.980;2023-06-10T12:31:59;8.57;;;6.30;;
20462;SDS011;10390;53.566;9.980;2023-06-10T12:37:05;8.85;;;6.90;;
20462;SDS011;10390;53.566;9.980;2023-06-10T12:39:38;7.95;;;6.03;;
20462;SDS011;10390;53.566;9.980;2023-06-10T12:42:04;9.65;;;6.78;;
20462;SDS011;10390;53.566;9.980;2023-06-10T12:44:34;11.60;;;7.07;;
20462;SDS011;10390;53.566;9.980;2023-06-10T12:47:07;11.23;;;6.85;;
20462;SDS011;10390;53.566;9.980;2023-06-10T12:49:35;9.48;;;6.65;;
20462;SDS011;10390;53.566;9.980;2023-06-10T12:52:01;11.35;;;6.00;;
20462;SDS011;10390;53.566;9.980;2023-06-10T12:54:26;10.90;;;6.72;;
20462;SDS011;10390;53.566;9.980;2023-06-10T12:56:52;12.90;;;6.55;;
20462;SDS011;10390;53.566;9.980;2023-06-10T12:59:18;10.98;;;6.78;;
20462;SDS011;10390;53.566;9.980;2023-06-10T13:01:44;11.43;;;6.65;;
20462;SDS011;10390;53.566;9.980;2023-06-10T13:04:15;11.60;;;6.30;;
20462;SDS011;10390;53.566;9.980;2023-06-10T13:06:41;15.32;;;7.85;;
20462;SDS011;10390;53.566;9.980;2023-06-10T13:09:07;11.63;;;7.03;;
20462;SDS011;10390;53.566;9.980;2023-06-10T13:11:32;9.25;;;6.60;;
20462;SDS011;10390;53.566;9.980;2023-06-10T13:13:58;10.25;;;6.75;;
20462;SDS011;10390;53.566;9.980;2023-06-10T13:16:24;11.25;;;7.47;;
20462;SDS011;10390;53.566;9.980;2023-06-10T13:18:50;7.97;;;6.50;;
20462;SDS011;10390;53.566;9.980;2023-06-10T13:21:17;7.25;;;6.10;;
20462;SDS011;10390;53.566;9.980;2023-06-10T13:23:44;9.85;;;7.00;;
20462;SDS011;10390;53.566;9.980;2023-06-10T13:26:11;8.95;;;6.97;;
20462;SDS011;10390;53.566;9.980;2023-06-10T13:28:36;8.00;;;7.20;;
20462;SDS011;10390;53.566;9.980;2023-06-10T13:31:03;7.97;;;6.63;;
20462;SDS011;10390;53.566;9.980;2023-06-10T13:33:28;9.05;;;7.40;;
20462;SDS011;10390;53.566;9.980;2023-06-10T13:35:54;7.82;;;6.65;;
20462;SDS011;10390;53.566;9.980;2023-06-10T13:38:20;8.57;;;7.00;;
20462;SDS011;10390;53.566;9.980;2023-06-10T13:40:45;7.80;;;7.00;;
20462;SDS011;10390;53.566;9.980;2023-06-10T13:43:11;7.93;;;7.10;;
20462;SDS011;10390;53.566;9.980;2023-06-10T13:45:38;8.38;;;7.07;;
20462;SDS011;10390;53.566;9.980;2023-06-10T13:48:04;7.13;;;6.40;;
20462;SDS011;10390;53.566;9.980;2023-06-10T13:50:30;7.18;;;6.47;;
20462;SDS011;10390;53.566;9.980;2023-06-10T13:52:56;8.23;;;6.57;;
20462;SDS011;10390;53.566;9.980;2023-06-10T13:55:22;8.98;;;6.40;;
20462;SDS011;10390;53.566;9.980;2023-06-10T13:57:49;7.22;;;6.22;;
20462;SDS011;10390;53.566;9.980;2023-06-10T14:00:15;10.25;;;6.47;;
20462;SDS011;10390;53.566;9.980;2023-06-10T14:02:41;7.90;;;7.10;;
20462;SDS011;10390;53.566;9.980;2023-06-10T14:05:07;9.57;;;8.15;;
20462;SDS011;10390;53.566;9.980;2023-06-10T14:07:33;9.18;;;8.27;;
20462;SDS011;10390;53.566;9.980;2023-06-10T14:09:59;9.98;;;7.53;;
20462;SDS011;10390;53.566;9.980;2023-06-10T14:12:25;10.95;;;7.38;;
20462;SDS011;10390;53.566;9.980;2023-06-10T14:14:50;10.23;;;7.63;;
20462;SDS011;10390;53.566;9.980;2023-06-10T14:17:16;10.88;;;7.60;;
20462;SDS011;10390;53.566;9.980;2023-06-10T14:19:42;9.52;;;7.28;;
20462;SDS011;10390;53.566;9.980;2023-06-10T14:22:07;9.63;;;7.28;;
20462;SDS011;10390;53.566;9.980;2023-06-10T14:24:33;8.73;;;6.55;;
20462;SDS011;10390;53.566;9.980;2023-06-10T14:27:00;9.63;;;6.93;;
20462;SDS011;10390;53.566;9.980;2023-06-10T14:29:25;9.27;;;7.20;;
20462;SDS011;10390;53.566;9.980;2023-06-10T14:31:53;7.78;;;6.78;;
20462;SDS011;10390;53.566;9.980;2023-06-10T14:34:19;9.60;;;7.13;;
20462;SDS011;10390;53.566;9.980;2023-06-10T14:36:45;8.00;;;7.10;;
20462;SDS011;10390;53.566;9.980;2023-06-10T14:39:11;8.57;;;6.85;;
20462;SDS011;10390;53.566;9.980;2023-06-10T14:41:37;8.35;;;6.25;;
20462;SDS011;10390;53.566;9.980;2023-06-10T14:44:02;9.90;;;6.22;;
20462;SDS011;10390;53.566;9.980;2023-06-10T14:46:28;8.80;;;6.03;;
20462;SDS011;10390;53.566;9.980;2023-06-10T14:48:53;9.23;;;5.85;;
20462;SDS011;10390;53.566;9.980;2023-06-10T14:51:19;8.07;;;6.53;;
20462;SDS011;10390;53.566;9.980;2023-06-10T14:53:46;8.00;;;5.90;;
20462;SDS011;10390;53.566;9.980;2023-06-10T14:56:11;8.70;;;6.43;;
20462;SDS011;10390;53.566;9.980;2023-06-10T14:58:37;7.65;;;6.82;;
20462;SDS011;10390;53.566;9.980;2023-06-10T15:01:03;7.93;;;7.13;;
20462;SDS011;10390;53.566;9.980;2023-06-10T15:03:29;8.23;;;6.70;;
20462;SDS011;10390;53.566;9.980;2023-06-10T15:05:55;9.10;;;7.30;;
20462;SDS011;10390;53.566;9.980;2023-06-10T15:08:20;9.13;;;6.90;;
20462;SDS011;10390;53.566;9.980;2023-06-10T15:10:46;9.95;;;7.90;;
20462;SDS011;10390;53.566;9.980;2023-06-10T15:13:13;8.27;;;7.45;;